sensor_id;sensor_type;location;lat;lon;timestamp;P1;durP1;ratioP1;P2;durP2;ratioP2
23310;SDS011;11828;51.508;18.118;2023-02-28T00:01:30;84.45;;;35.83;;
23310;SDS011;11828;51.508;18.118;2023-02-28T00:03:57;71.15;;;28.58;;
23310;SDS011;11828;51.508;18.118;2023-02-28T00:06:23;64.35;;;28.48;;
23310;SDS011;11828;51.508;18.118;2023-02-28T00:08:50;67.68;;;28.45;;
23310;SDS011;11828;51.508;18.118;2023-02-28T00:11:16;75.78;;;28.75;;
23310;SDS011;11828;51.508;18.118;2023-02-28T00:13:44;72.45;;;27.77;;
23310;SDS011;11828;51.508;18.118;2023-02-28T00:16:13;61.58;;;26.10;;
23310;SDS011;11828;51.508;18.118;2023-02-28T00:18:42;70.53;;;27.75;;
23310;SDS011;11828;51.508;18.118;2023-02-28T00:21:09;65.55;;;26.73;;
23310;SDS011;11828;51.508;18.118;2023-02-28T00:23:35;74.32;;;27.65;;
23310;SDS011;11828;51.508;18.118;2023-02-28T00:26:01;155.95;;;49.75;;
23310;SDS011;11828;51.508;18.118;2023-02-28T00:28:28;112.85;;;40.42;;
23310;SDS011;11828;51.508;18.118;2023-02-28T00:30:54;113.25;;;40.60;;
23310;SDS011;11828;51.508;18.118;2023-02-28T00:33:22;116.60;;;41.13;;
23310;SDS011;11828;51.508;18.118;2023-02-28T00:35:48;104.93;;;38.20;;
23310;SDS011;11828;51.508;18.118;2023-02-28T00:38:15;85.20;;;32.58;;
23310;SDS011;11828;51.508;18.118;2023-02-28T00:40:41;98.55;;;35.38;;
23310;SDS011;11828;51.508;18.118;2023-02-28T00:43:08;119.65;;;39.08;;
23310;SDS011;11828;51.508;18.118;2023-02-28T00:45:34;88.97;;;34.13;;
23310;SDS011;11828;51.508;18.118;2023-02-28T00:48:00;89.15;;;33.72;;
23310;SDS011;11828;51.508;18.118;2023-02-28T00:50:26;90.57;;;33.83;;
23310;SDS011;11828;51.508;18.118;2023-02-28T00:52:52;83.25;;;33.10;;
23310;SDS011;11828;51.508;18.118;2023-02-28T00:55:19;76.53;;;31.67;;
23310;SDS011;11828;51.508;18.118;2023-02-28T00:57:45;72.70;;;29.70;;
23310;SDS011;11828;51.508;18.118;2023-02-28T01:00:11;73.88;;;30.48;;
23310;SDS011;11828;51.508;18.118;2023-02-28T01:02:38;69.20;;;29.95;;
23310;SDS011;11828;51.508;18.118;2023-02-28T01:05:04;72.72;;;31.52;;
23310;SDS011;11828;51.508;18.118;2023-02-28T01:07:31;67.68;;;28.40;;
23310;SDS011;11828;51.508;18.118;2023-02-28T01:09:57;64.85;;;27.95;;
23310;SDS011;11828;51.508;18.118;2023-02-28T01:12:23;71.03;;;29.02;;
23310;SDS011;11828;51.508;18.118;2023-02-28T01:14:49;68.88;;;29.35;;
23310;SDS011;11828;51.508;18.118;2023-02-28T01:17:15;67.72;;;29.35;;
23310;SDS011;11828;51.508;18.118;2023-02-28T01:19:42;70.55;;;29.20;;
23310;SDS011;11828;51.508;18.118;2023-02-28T01:22:08;61.38;;;27.63;;
23310;SDS011;11828;51.508;18.118;2023-02-28T01:24:34;68.97;;;28.40;;
23310;SDS011;11828;51.508;18.118;2023-02-28T01:27:01;68.88;;;29.17;;
23310;SDS011;11828;51.508;18.118;2023-02-28T01:29:27;70.55;;;28.92;;
23310;SDS011;11828;51.508;18.118;2023-02-28T01:31:53;66.90;;;28.42;;
23310;SDS011;11828;51.508;18.118;2023-02-28T01:34:20;73.22;;;29.15;;
23310;SDS011;11828;51.508;18.118;2023-02-28T01:36:46;66.40;;;28.42;;
23310;SDS011;11828;51.508;18.118;2023-02-28T01:39:12;69.55;;;27.98;;
23310;SDS011;11828;51.508;18.118;2023-02-28T01:41:38;74.90;;;29.67;;
23310;SDS011;11828;51.508;18.118;2023-02-28T01:47:10;64.70;;;28.48;;
23310;SDS011;11828;51.508;18.118;2023-02-28T01:49:37;60.13;;;26.17;;
23310;SDS011;11828;51.508;18.118;2023-02-28T01:52:03;66.32;;;26.48;;
23310;SDS011;11828;51.508;18.118;2023-02-28T01:54:30;65.35;;;27.17;;
23310;SDS011;11828;51.508;18.118;2023-02-28T01:57:06;60.00;;;24.48;;
23310;SDS011;11828;51.508;18.118;2023-02-28T01:59:59;58.58;;;25.20;;
23310;SDS011;11828;51.508;18.118;2023-02-28T02:02:38;55.38;;;24.02;;
23310;SDS011;11828;51.508;18.118;2023-02-28T02:05:14;58.88;;;25.05;;
23310;SDS011;11828;51.508;18.118;2023-02-28T02:07:48;60.38;;;24.52;;
23310;SDS011;11828;51.508;18.118;2023-02-28T02:21:56;57.50;;;26.52;;
23310;SDS011;11828;51.508;18.118;2023-02-28T02:36:46;65.32;;;25.63;;
23310;SDS011;11828;51.508;18.118;2023-02-28T02:42:16;56.55;;;25.42;;
23310;SDS011;11828;51.508;18.118;2023-02-28T02:45:09;71.47;;;26.08;;
23310;SDS011;11828;51.508;18.118;2023-02-28T02:48:15;58.95;;;24.08;;
23310;SDS011;11828;51.508;18.118;2023-02-28T02:50:46;65.72;;;25.85;;
23310;SDS011;11828;51.508;18.118;2023-02-28T02:53:21;77.13;;;26.02;;
23310;SDS011;11828;51.508;18.118;2023-02-28T02:56:02;57.92;;;24.17;;
23310;SDS011;11828;51.508;18.118;2023-02-28T02:58:35;64.68;;;26.65;;
23310;SDS011;11828;51.508;18.118;2023-02-28T03:01:07;61.78;;;26.75;;
23310;SDS011;11828;51.508;18.118;2023-02-28T03:03:55;58.13;;;27.00;;
23310;SDS011;11828;51.508;18.118;2023-02-28T03:06:29;68.55;;;27.60;;
23310;SDS011;11828;51.508;18.118;2023-02-28T03:08:55;64.80;;;24.85;;
23310;SDS011;11828;51.508;18.118;2023-02-28T03:11:21;63.42;;;26.00;;
23310;SDS011;11828;51.508;18.118;2023-02-28T03:13:52;57.10;;;25.08;;
23310;SDS011;11828;51.508;18.118;2023-02-28T03:22:58;72.35;;;26.17;;
23310;SDS011;11828;51.508;18.118;2023-02-28T03:25:49;61.00;;;27.27;;
23310;SDS011;11828;51.508;18.118;2023-02-28T03:28:24;67.55;;;27.52;;
23310;SDS011;11828;51.508;18.118;2023-02-28T03:31:10;68.25;;;29.10;;
23310;SDS011;11828;51.508;18.118;2023-02-28T03:33:51;68.00;;;29.67;;
23310;SDS011;11828;51.508;18.118;2023-02-28T03:36:29;84.40;;;31.88;;
23310;SDS011;11828;51.508;18.118;2023-02-28T03:39:07;69.78;;;30.77;;
23310;SDS011;11828;51.508;18.118;2023-02-28T03:42:15;95.85;;;31.20;;
23310;SDS011;11828;51.508;18.118;2023-02-28T03:44:57;65.78;;;28.63;;
23310;SDS011;11828;51.508;18.118;2023-02-28T03:47:27;64.10;;;29.17;;
23310;SDS011;11828;51.508;18.118;2023-02-28T03:50:04;66.75;;;29.77;;
23310;SDS011;11828;51.508;18.118;2023-02-28T03:52:50;66.05;;;29.80;;
23310;SDS011;11828;51.508;18.118;2023-02-28T03:55:27;59.67;;;28.83;;
23310;SDS011;11828;51.508;18.118;2023-02-28T03:58:04;65.75;;;29.38;;
23310;SDS011;11828;51.508;18.118;2023-02-28T04:01:15;71.55;;;34.40;;
23310;SDS011;11828;51.508;18.118;2023-02-28T04:03:51;59.42;;;27.48;;
23310;SDS011;11828;51.508;18.118;2023-02-28T04:06:18;66.15;;;30.45;;
23310;SDS011;11828;51.508;18.118;2023-02-28T04:08:47;72.57;;;37.03;;
23310;SDS011;11828;51.508;18.118;2023-02-28T04:11:32;91.82;;;35.50;;
23310;SDS011;11828;51.508;18.118;2023-02-28T04:14:04;92.57;;;36.75;;
23310;SDS011;11828;51.508;18.118;2023-02-28T04:16:33;92.93;;;36.90;;
23310;SDS011;11828;51.508;18.118;2023-02-28T04:19:05;76.57;;;37.60;;
23310;SDS011;11828;51.508;18.118;2023-02-28T04:21:34;72.70;;;38.08;;
23310;SDS011;11828;51.508;18.118;2023-02-28T04:24:04;65.53;;;38.03;;
23310;SDS011;11828;51.508;18.118;2023-02-28T04:26:33;77.00;;;32.05;;
23310;SDS011;11828;51.508;18.118;2023-02-28T04:29:02;57.85;;;30.33;;
23310;SDS011;11828;51.508;18.118;2023-02-28T04:31:30;60.42;;;30.70;;
23310;SDS011;11828;51.508;18.118;2023-02-28T04:33:57;79.68;;;34.63;;
23310;SDS011;11828;51.508;18.118;2023-02-28T04:36:23;51.85;;;29.00;;
23310;SDS011;11828;51.508;18.118;2023-02-28T04:38:50;72.78;;;35.33;;
23310;SDS011;11828;51.508;18.118;2023-02-28T04:41:16;67.55;;;31.88;;
23310;SDS011;11828;51.508;18.118;2023-02-28T04:43:43;79.53;;;47.03;;
23310;SDS011;11828;51.508;18.118;2023-02-28T04:46:09;87.85;;;57.58;;
23310;SDS011;11828;51.508;18.118;2023-02-28T04:48:36;87.65;;;41.28;;
23310;SDS011;11828;51.508;18.118;2023-02-28T04:51:05;69.97;;;31.08;;
23310;SDS011;11828;51.508;18.118;2023-02-28T04:53:34;52.35;;;26.05;;
23310;SDS011;11828;51.508;18.118;2023-02-28T04:56:02;51.75;;;25.42;;
23310;SDS011;11828;51.508;18.118;2023-02-28T04:58:30;59.05;;;24.02;;
23310;SDS011;11828;51.508;18.118;2023-02-28T05:01:03;57.25;;;27.05;;
23310;SDS011;11828;51.508;18.118;2023-02-28T05:03:30;55.60;;;27.08;;
23310;SDS011;11828;51.508;18.118;2023-02-28T05:05:56;55.05;;;26.08;;
23310;SDS011;11828;51.508;18.118;2023-02-28T05:08:22;51.03;;;25.45;;
23310;SDS011;11828;51.508;18.118;2023-02-28T05:10:48;57.88;;;26.90;;
23310;SDS011;11828;51.508;18.118;2023-02-28T05:13:15;51.25;;;23.00;;
23310;SDS011;11828;51.508;18.118;2023-02-28T05:15:41;50.60;;;25.00;;
23310;SDS011;11828;51.508;18.118;2023-02-28T05:18:08;51.83;;;24.13;;
23310;SDS011;11828;51.508;18.118;2023-02-28T05:20:34;49.10;;;29.20;;
23310;SDS011;11828;51.508;18.118;2023-02-28T05:23:00;54.17;;;27.65;;
23310;SDS011;11828;51.508;18.118;2023-02-28T05:25:28;59.72;;;28.83;;
23310;SDS011;11828;51.508;18.118;2023-02-28T05:27:54;53.97;;;28.40;;
23310;SDS011;11828;51.508;18.118;2023-02-28T05:30:20;64.97;;;26.50;;
23310;SDS011;11828;51.508;18.118;2023-02-28T05:32:49;69.55;;;30.55;;
23310;SDS011;11828;51.508;18.118;2023-02-28T05:35:16;55.92;;;25.42;;
23310;SDS011;11828;51.508;18.118;2023-02-28T05:37:43;50.47;;;29.73;;
23310;SDS011;11828;51.508;18.118;2023-02-28T05:40:10;55.67;;;29.70;;
23310;SDS011;11828;51.508;18.118;2023-02-28T05:42:37;40.67;;;20.50;;
23310;SDS011;11828;51.508;18.118;2023-02-28T05:45:04;45.00;;;20.75;;
23310;SDS011;11828;51.508;18.118;2023-02-28T05:47:32;41.85;;;22.05;;
23310;SDS011;11828;51.508;18.118;2023-02-28T05:49:58;39.10;;;22.88;;
23310;SDS011;11828;51.508;18.118;2023-02-28T05:52:25;45.97;;;29.77;;
23310;SDS011;11828;51.508;18.118;2023-02-28T05:54:51;47.45;;;36.55;;
23310;SDS011;11828;51.508;18.118;2023-02-28T05:57:18;48.80;;;32.40;;
23310;SDS011;11828;51.508;18.118;2023-02-28T05:59:44;40.92;;;27.30;;
23310;SDS011;11828;51.508;18.118;2023-02-28T06:02:11;54.33;;;42.70;;
23310;SDS011;11828;51.508;18.118;2023-02-28T06:04:39;41.75;;;23.65;;
23310;SDS011;11828;51.508;18.118;2023-02-28T06:07:07;43.72;;;24.38;;
23310;SDS011;11828;51.508;18.118;2023-02-28T06:09:34;63.85;;;34.63;;
23310;SDS011;11828;51.508;18.118;2023-02-28T06:12:01;61.90;;;28.35;;
23310;SDS011;11828;51.508;18.118;2023-02-28T06:14:31;56.25;;;31.63;;
23310;SDS011;11828;51.508;18.118;2023-02-28T06:16:59;48.90;;;23.23;;
23310;SDS011;11828;51.508;18.118;2023-02-28T06:19:26;68.65;;;28.55;;
23310;SDS011;11828;51.508;18.118;2023-02-28T06:21:53;47.35;;;25.15;;
23310;SDS011;11828;51.508;18.118;2023-02-28T06:24:22;50.97;;;26.80;;
23310;SDS011;11828;51.508;18.118;2023-02-28T06:26:50;46.58;;;24.95;;
23310;SDS011;11828;51.508;18.118;2023-02-28T06:29:16;58.28;;;26.67;;
23310;SDS011;11828;51.508;18.118;2023-02-28T06:31:44;46.22;;;26.70;;
23310;SDS011;11828;51.508;18.118;2023-02-28T06:34:11;73.18;;;35.55;;
23310;SDS011;11828;51.508;18.118;2023-02-28T06:36:38;76.80;;;39.47;;
23310;SDS011;11828;51.508;18.118;2023-02-28T06:39:06;57.35;;;28.55;;
23310;SDS011;11828;51.508;18.118;2023-02-28T06:41:33;52.78;;;24.83;;
23310;SDS011;11828;51.508;18.118;2023-02-28T06:44:11;54.58;;;24.40;;
23310;SDS011;11828;51.508;18.118;2023-02-28T06:46:42;88.50;;;34.83;;
23310;SDS011;11828;51.508;18.118;2023-02-28T06:49:10;70.15;;;32.00;;
23310;SDS011;11828;51.508;18.118;2023-02-28T06:51:38;57.85;;;26.35;;
23310;SDS011;11828;51.508;18.118;2023-02-28T06:54:06;57.60;;;24.08;;
23310;SDS011;11828;51.508;18.118;2023-02-28T06:56:36;66.10;;;27.75;;
23310;SDS011;11828;51.508;18.118;2023-02-28T06:59:02;70.30;;;26.35;;
23310;SDS011;11828;51.508;18.118;2023-02-28T07:01:29;47.22;;;21.95;;
23310;SDS011;11828;51.508;18.118;2023-02-28T07:03:56;43.45;;;18.20;;
23310;SDS011;11828;51.508;18.118;2023-02-28T07:06:23;41.60;;;18.67;;
23310;SDS011;11828;51.508;18.118;2023-02-28T07:08:50;44.08;;;19.50;;
23310;SDS011;11828;51.508;18.118;2023-02-28T07:11:19;41.75;;;19.98;;
23310;SDS011;11828;51.508;18.118;2023-02-28T07:13:48;95.38;;;44.92;;
23310;SDS011;11828;51.508;18.118;2023-02-28T07:16:16;48.67;;;24.02;;
23310;SDS011;11828;51.508;18.118;2023-02-28T07:18:42;40.85;;;20.17;;
23310;SDS011;11828;51.508;18.118;2023-02-28T07:21:09;59.25;;;25.42;;
23310;SDS011;11828;51.508;18.118;2023-02-28T07:23:36;47.58;;;22.35;;
23310;SDS011;11828;51.508;18.118;2023-02-28T07:26:07;52.88;;;25.17;;
23310;SDS011;11828;51.508;18.118;2023-02-28T07:28:40;52.58;;;26.50;;
23310;SDS011;11828;51.508;18.118;2023-02-28T07:31:10;36.22;;;19.42;;
23310;SDS011;11828;51.508;18.118;2023-02-28T07:33:39;36.65;;;19.55;;
23310;SDS011;11828;51.508;18.118;2023-02-28T07:36:07;39.13;;;23.08;;
23310;SDS011;11828;51.508;18.118;2023-02-28T07:38:43;34.03;;;19.13;;
23310;SDS011;11828;51.508;18.118;2023-02-28T07:41:14;37.22;;;18.73;;
23310;SDS011;11828;51.508;18.118;2023-02-28T07:43:41;31.75;;;16.90;;
23310;SDS011;11828;51.508;18.118;2023-02-28T07:46:10;28.85;;;16.02;;
23310;SDS011;11828;51.508;18.118;2023-02-28T07:48:40;33.40;;;15.23;;
23310;SDS011;11828;51.508;18.118;2023-02-28T07:51:07;36.13;;;16.33;;
23310;SDS011;11828;51.508;18.118;2023-02-28T07:53:33;33.40;;;19.42;;
23310;SDS011;11828;51.508;18.118;2023-02-28T07:56:00;81.13;;;50.63;;
23310;SDS011;11828;51.508;18.118;2023-02-28T07:58:28;85.22;;;51.58;;
23310;SDS011;11828;51.508;18.118;2023-02-28T08:00:56;61.40;;;35.35;;
23310;SDS011;11828;51.508;18.118;2023-02-28T08:03:23;44.35;;;22.35;;
23310;SDS011;11828;51.508;18.118;2023-02-28T08:05:50;35.90;;;18.27;;
23310;SDS011;11828;51.508;18.118;2023-02-28T08:08:17;35.00;;;16.48;;
23310;SDS011;11828;51.508;18.118;2023-02-28T08:10:44;30.55;;;15.57;;
23310;SDS011;11828;51.508;18.118;2023-02-28T08:13:10;30.00;;;15.70;;
23310;SDS011;11828;51.508;18.118;2023-02-28T08:15:37;32.78;;;16.38;;
23310;SDS011;11828;51.508;18.118;2023-02-28T08:18:03;31.50;;;17.73;;
23310;SDS011;11828;51.508;18.118;2023-02-28T08:20:29;30.48;;;16.60;;
23310;SDS011;11828;51.508;18.118;2023-02-28T08:22:55;35.15;;;18.10;;
23310;SDS011;11828;51.508;18.118;2023-02-28T08:25:22;31.50;;;17.10;;
23310;SDS011;11828;51.508;18.118;2023-02-28T08:27:50;37.70;;;18.02;;
23310;SDS011;11828;51.508;18.118;2023-02-28T08:30:17;39.00;;;23.88;;
23310;SDS011;11828;51.508;18.118;2023-02-28T08:32:43;44.28;;;26.08;;
23310;SDS011;11828;51.508;18.118;2023-02-28T08:35:10;37.28;;;19.25;;
23310;SDS011;11828;51.508;18.118;2023-02-28T08:37:36;29.75;;;15.73;;
23310;SDS011;11828;51.508;18.118;2023-02-28T08:40:02;29.70;;;15.93;;
23310;SDS011;11828;51.508;18.118;2023-02-28T08:42:29;30.75;;;14.98;;
23310;SDS011;11828;51.508;18.118;2023-02-28T08:44:55;25.27;;;14.10;;
23310;SDS011;11828;51.508;18.118;2023-02-28T08:47:22;32.47;;;15.68;;
23310;SDS011;11828;51.508;18.118;2023-02-28T08:49:48;24.35;;;14.10;;
23310;SDS011;11828;51.508;18.118;2023-02-28T08:52:14;32.22;;;14.52;;
23310;SDS011;11828;51.508;18.118;2023-02-28T08:54:41;32.13;;;16.80;;
23310;SDS011;11828;51.508;18.118;2023-02-28T08:57:07;28.90;;;14.60;;
23310;SDS011;11828;51.508;18.118;2023-02-28T08:59:33;38.13;;;14.38;;
23310;SDS011;11828;51.508;18.118;2023-02-28T09:01:59;21.48;;;11.90;;
23310;SDS011;11828;51.508;18.118;2023-02-28T09:04:25;28.35;;;12.60;;
23310;SDS011;11828;51.508;18.118;2023-02-28T09:06:52;23.65;;;11.80;;
23310;SDS011;11828;51.508;18.118;2023-02-28T09:09:18;31.85;;;12.82;;
23310;SDS011;11828;51.508;18.118;2023-02-28T09:11:44;39.20;;;14.25;;
23310;SDS011;11828;51.508;18.118;2023-02-28T09:14:11;40.30;;;19.42;;
23310;SDS011;11828;51.508;18.118;2023-02-28T09:16:37;28.92;;;13.70;;
23310;SDS011;11828;51.508;18.118;2023-02-28T09:19:03;21.05;;;12.23;;
23310;SDS011;11828;51.508;18.118;2023-02-28T09:21:29;25.58;;;12.38;;
23310;SDS011;11828;51.508;18.118;2023-02-28T09:23:55;25.13;;;12.07;;
23310;SDS011;11828;51.508;18.118;2023-02-28T09:26:23;22.90;;;11.57;;
23310;SDS011;11828;51.508;18.118;2023-02-28T09:28:52;23.45;;;11.82;;
23310;SDS011;11828;51.508;18.118;2023-02-28T09:31:20;20.58;;;11.55;;
23310;SDS011;11828;51.508;18.118;2023-02-28T09:33:51;25.77;;;12.45;;
23310;SDS011;11828;51.508;18.118;2023-02-28T09:36:19;20.38;;;10.02;;
23310;SDS011;11828;51.508;18.118;2023-02-28T09:38:47;17.63;;;9.40;;
23310;SDS011;11828;51.508;18.118;2023-02-28T09:41:15;17.25;;;8.93;;
23310;SDS011;11828;51.508;18.118;2023-02-28T09:43:55;24.20;;;10.05;;
23310;SDS011;11828;51.508;18.118;2023-02-28T09:49:07;25.67;;;11.00;;
23310;SDS011;11828;51.508;18.118;2023-02-28T09:51:43;26.40;;;11.45;;
23310;SDS011;11828;51.508;18.118;2023-02-28T09:54:24;25.10;;;10.70;;
23310;SDS011;11828;51.508;18.118;2023-02-28T09:56:57;23.02;;;10.23;;
23310;SDS011;11828;51.508;18.118;2023-02-28T10:05:11;19.52;;;9.45;;
23310;SDS011;11828;51.508;18.118;2023-02-28T10:07:52;19.33;;;10.73;;
23310;SDS011;11828;51.508;18.118;2023-02-28T10:13:14;17.17;;;9.55;;
23310;SDS011;11828;51.508;18.118;2023-02-28T10:16:01;25.85;;;10.50;;
23310;SDS011;11828;51.508;18.118;2023-02-28T10:19:14;20.77;;;9.63;;
23310;SDS011;11828;51.508;18.118;2023-02-28T10:21:57;22.52;;;10.32;;
23310;SDS011;11828;51.508;18.118;2023-02-28T10:24:28;16.63;;;9.13;;
23310;SDS011;11828;51.508;18.118;2023-02-28T10:27:13;23.75;;;10.23;;
23310;SDS011;11828;51.508;18.118;2023-02-28T10:29:54;20.75;;;10.15;;
23310;SDS011;11828;51.508;18.118;2023-02-28T10:35:15;23.60;;;12.57;;
23310;SDS011;11828;51.508;18.118;2023-02-28T10:37:52;20.73;;;10.48;;
23310;SDS011;11828;51.508;18.118;2023-02-28T10:43:02;27.38;;;11.52;;
23310;SDS011;11828;51.508;18.118;2023-02-28T10:45:32;20.88;;;11.40;;
23310;SDS011;11828;51.508;18.118;2023-02-28T10:53:21;28.42;;;12.63;;
23310;SDS011;11828;51.508;18.118;2023-02-28T10:56:02;24.65;;;11.98;;
23310;SDS011;11828;51.508;18.118;2023-02-28T10:58:53;21.42;;;11.88;;
23310;SDS011;11828;51.508;18.118;2023-02-28T11:04:17;24.30;;;12.65;;
23310;SDS011;11828;51.508;18.118;2023-02-28T11:06:44;21.80;;;13.02;;
23310;SDS011;11828;51.508;18.118;2023-02-28T11:09:22;21.10;;;11.63;;
23310;SDS011;11828;51.508;18.118;2023-02-28T11:11:54;29.45;;;12.75;;
23310;SDS011;11828;51.508;18.118;2023-02-28T11:14:24;29.95;;;13.07;;
23310;SDS011;11828;51.508;18.118;2023-02-28T11:16:53;26.63;;;13.07;;
23310;SDS011;11828;51.508;18.118;2023-02-28T11:19:31;25.05;;;12.07;;
23310;SDS011;11828;51.508;18.118;2023-02-28T11:22:05;25.20;;;11.88;;
23310;SDS011;11828;51.508;18.118;2023-02-28T11:29:58;20.85;;;10.80;;
23310;SDS011;11828;51.508;18.118;2023-02-28T11:32:26;26.77;;;12.55;;
23310;SDS011;11828;51.508;18.118;2023-02-28T11:37:37;26.52;;;11.40;;
23310;SDS011;11828;51.508;18.118;2023-02-28T11:40:14;25.70;;;11.18;;
23310;SDS011;11828;51.508;18.118;2023-02-28T11:42:50;37.25;;;12.77;;
23310;SDS011;11828;51.508;18.118;2023-02-28T11:45:55;22.38;;;11.13;;
23310;SDS011;11828;51.508;18.118;2023-02-28T11:51:48;23.38;;;10.90;;
23310;SDS011;11828;51.508;18.118;2023-02-28T12:12:10;28.00;;;11.48;;
23310;SDS011;11828;51.508;18.118;2023-02-28T12:18:04;26.60;;;10.73;;
23310;SDS011;11828;51.508;18.118;2023-02-28T12:20:36;19.23;;;9.80;;
23310;SDS011;11828;51.508;18.118;2023-02-28T12:32:32;21.45;;;10.98;;
23310;SDS011;11828;51.508;18.118;2023-02-28T12:37:41;26.85;;;11.70;;
23310;SDS011;11828;51.508;18.118;2023-02-28T12:40:34;24.30;;;11.68;;
23310;SDS011;11828;51.508;18.118;2023-02-28T12:43:28;24.77;;;11.93;;
23310;SDS011;11828;51.508;18.118;2023-02-28T12:46:07;24.58;;;11.77;;
23310;SDS011;11828;51.508;18.118;2023-02-28T12:48:49;21.42;;;12.52;;
23310;SDS011;11828;51.508;18.118;2023-02-28T12:51:24;24.20;;;12.43;;
23310;SDS011;11828;51.508;18.118;2023-02-28T12:53:54;21.98;;;12.52;;
23310;SDS011;11828;51.508;18.118;2023-02-28T12:59:20;21.40;;;11.98;;
23310;SDS011;11828;51.508;18.118;2023-02-28T13:05:17;23.20;;;13.40;;
23310;SDS011;11828;51.508;18.118;2023-02-28T13:08:34;19.60;;;11.68;;
23310;SDS011;11828;51.508;18.118;2023-02-28T13:11:24;16.70;;;11.00;;
23310;SDS011;11828;51.508;18.118;2023-02-28T13:13:58;19.67;;;11.90;;
23310;SDS011;11828;51.508;18.118;2023-02-28T13:16:54;21.33;;;11.18;;
23310;SDS011;11828;51.508;18.118;2023-02-28T13:19:37;19.58;;;10.82;;
23310;SDS011;11828;51.508;18.118;2023-02-28T13:33:22;18.58;;;10.77;;
23310;SDS011;11828;51.508;18.118;2023-02-28T13:36:42;22.42;;;11.38;;
23310;SDS011;11828;51.508;18.118;2023-02-28T13:38:49;19.88;;;10.95;;
23310;SDS011;11828;51.508;18.118;2023-02-28T13:49:31;22.33;;;11.80;;
23310;SDS011;11828;51.508;18.118;2023-02-28T13:54:49;20.02;;;11.10;;
23310;SDS011;11828;51.508;18.118;2023-02-28T14:03:13;24.35;;;14.77;;
23310;SDS011;11828;51.508;18.118;2023-02-28T14:08:51;22.70;;;13.52;;
23310;SDS011;11828;51.508;18.118;2023-02-28T14:11:27;18.90;;;11.88;;
23310;SDS011;11828;51.508;18.118;2023-02-28T14:14:02;21.85;;;12.98;;
23310;SDS011;11828;51.508;18.118;2023-02-28T14:16:41;21.98;;;12.07;;
23310;SDS011;11828;51.508;18.118;2023-02-28T14:27:39;27.67;;;13.25;;
23310;SDS011;11828;51.508;18.118;2023-02-28T14:30:52;27.15;;;12.18;;
23310;SDS011;11828;51.508;18.118;2023-02-28T14:39:21;25.98;;;12.77;;
23310;SDS011;11828;51.508;18.118;2023-02-28T14:41:48;30.35;;;14.98;;
23310;SDS011;11828;51.508;18.118;2023-02-28T14:44:19;32.22;;;16.58;;
23310;SDS011;11828;51.508;18.118;2023-02-28T14:46:53;31.10;;;16.40;;
23310;SDS011;11828;51.508;18.118;2023-02-28T14:49:35;32.22;;;14.45;;
23310;SDS011;11828;51.508;18.118;2023-02-28T14:52:19;26.88;;;13.18;;
23310;SDS011;11828;51.508;18.118;2023-02-28T14:55:10;26.67;;;13.18;;
23310;SDS011;11828;51.508;18.118;2023-02-28T14:57:53;27.77;;;11.80;;
23310;SDS011;11828;51.508;18.118;2023-02-28T15:00:35;34.25;;;13.40;;
23310;SDS011;11828;51.508;18.118;2023-02-28T15:06:12;27.30;;;12.60;;
23310;SDS011;11828;51.508;18.118;2023-02-28T15:08:43;29.67;;;13.85;;
23310;SDS011;11828;51.508;18.118;2023-02-28T15:11:13;26.55;;;12.68;;
23310;SDS011;11828;51.508;18.118;2023-02-28T15:13:50;37.63;;;14.07;;
23310;SDS011;11828;51.508;18.118;2023-02-28T15:16:25;33.40;;;13.60;;
23310;SDS011;11828;51.508;18.118;2023-02-28T15:19:07;36.70;;;15.27;;
23310;SDS011;11828;51.508;18.118;2023-02-28T15:21:48;35.78;;;15.93;;
23310;SDS011;11828;51.508;18.118;2023-02-28T15:24:20;38.58;;;16.40;;
23310;SDS011;11828;51.508;18.118;2023-02-28T15:26:52;36.72;;;15.70;;
23310;SDS011;11828;51.508;18.118;2023-02-28T15:29:25;67.65;;;17.27;;
23310;SDS011;11828;51.508;18.118;2023-02-28T15:32:02;34.17;;;15.15;;
23310;SDS011;11828;51.508;18.118;2023-02-28T15:40:18;46.83;;;15.30;;
23310;SDS011;11828;51.508;18.118;2023-02-28T15:42:58;43.45;;;14.77;;
23310;SDS011;11828;51.508;18.118;2023-02-28T15:48:28;37.70;;;15.30;;
23310;SDS011;11828;51.508;18.118;2023-02-28T15:51:18;52.00;;;16.17;;
23310;SDS011;11828;51.508;18.118;2023-02-28T15:54:00;49.03;;;15.60;;
23310;SDS011;11828;51.508;18.118;2023-02-28T15:56:43;42.08;;;15.77;;
23310;SDS011;11828;51.508;18.118;2023-02-28T15:59:16;43.60;;;15.25;;
23310;SDS011;11828;51.508;18.118;2023-02-28T16:01:52;40.78;;;15.20;;
23310;SDS011;11828;51.508;18.118;2023-02-28T16:04:35;44.63;;;16.60;;
23310;SDS011;11828;51.508;18.118;2023-02-28T16:07:03;55.45;;;18.00;;
23310;SDS011;11828;51.508;18.118;2023-02-28T16:09:31;49.80;;;18.10;;
23310;SDS011;11828;51.508;18.118;2023-02-28T16:12:00;40.50;;;18.40;;
23310;SDS011;11828;51.508;18.118;2023-02-28T16:14:29;45.95;;;18.33;;
23310;SDS011;11828;51.508;18.118;2023-02-28T16:16:57;51.03;;;20.65;;
23310;SDS011;11828;51.508;18.118;2023-02-28T16:19:31;62.33;;;24.77;;
23310;SDS011;11828;51.508;18.118;2023-02-28T16:21:57;63.72;;;22.75;;
23310;SDS011;11828;51.508;18.118;2023-02-28T16:24:24;51.78;;;20.73;;
23310;SDS011;11828;51.508;18.118;2023-02-28T16:26:50;40.88;;;18.92;;
23310;SDS011;11828;51.508;18.118;2023-02-28T16:29:29;70.72;;;21.08;;
23310;SDS011;11828;51.508;18.118;2023-02-28T16:32:00;69.30;;;20.27;;
23310;SDS011;11828;51.508;18.118;2023-02-28T16:34:28;50.08;;;17.55;;
23310;SDS011;11828;51.508;18.118;2023-02-28T16:36:54;36.38;;;16.13;;
23310;SDS011;11828;51.508;18.118;2023-02-28T16:39:20;44.42;;;18.83;;
23310;SDS011;11828;51.508;18.118;2023-02-28T16:41:46;52.83;;;21.83;;
23310;SDS011;11828;51.508;18.118;2023-02-28T16:44:20;48.40;;;20.67;;
23310;SDS011;11828;51.508;18.118;2023-02-28T16:46:54;45.15;;;20.38;;
23310;SDS011;11828;51.508;18.118;2023-02-28T16:49:21;56.88;;;25.65;;
23310;SDS011;11828;51.508;18.118;2023-02-28T16:51:47;60.65;;;27.42;;
23310;SDS011;11828;51.508;18.118;2023-02-28T16:54:14;78.05;;;28.77;;
23310;SDS011;11828;51.508;18.118;2023-02-28T16:56:44;85.07;;;29.20;;
23310;SDS011;11828;51.508;18.118;2023-02-28T16:59:17;82.93;;;30.08;;
23310;SDS011;11828;51.508;18.118;2023-02-28T17:01:49;80.32;;;30.48;;
23310;SDS011;11828;51.508;18.118;2023-02-28T17:04:17;73.90;;;27.13;;
23310;SDS011;11828;51.508;18.118;2023-02-28T17:06:43;67.82;;;28.17;;
23310;SDS011;11828;51.508;18.118;2023-02-28T17:09:14;55.53;;;25.00;;
23310;SDS011;11828;51.508;18.118;2023-02-28T17:11:43;53.78;;;31.42;;
23310;SDS011;11828;51.508;18.118;2023-02-28T17:14:10;59.42;;;26.35;;
23310;SDS011;11828;51.508;18.118;2023-02-28T17:16:36;64.22;;;24.83;;
23310;SDS011;11828;51.508;18.118;2023-02-28T17:19:14;67.55;;;25.25;;
23310;SDS011;11828;51.508;18.118;2023-02-28T17:21:42;74.82;;;25.40;;
23310;SDS011;11828;51.508;18.118;2023-02-28T17:24:09;61.15;;;27.63;;